sensor_id;sensor_type;location;lat;lon;timestamp;P1;durP1;ratioP1;P2;durP2;ratioP2
36855;SDS011;22788;51.434;6.786;2023-08-08T00:01:07;2.42;;;1.80;;
36855;SDS011;22788;51.434;6.786;2023-08-08T00:03:34;2.35;;;1.70;;
36855;SDS011;22788;51.434;6.786;2023-08-08T00:05:59;2.15;;;1.90;;
36855;SDS011;22788;51.434;6.786;2023-08-08T00:08:25;3.45;;;1.80;;
36855;SDS011;22788;51.434;6.786;2023-08-08T00:10:50;3.13;;;1.60;;
36855;SDS011;22788;51.434;6.786;2023-08-08T00:13:16;2.90;;;2.03;;
36855;SDS011;22788;51.434;6.786;2023-08-08T00:15:42;1.90;;;1.70;;
36855;SDS011;22788;51.434;6.786;2023-08-08T00:18:08;2.20;;;1.60;;
36855;SDS011;22788;51.434;6.786;2023-08-08T00:20:35;1.67;;;1.58;;
36855;SDS011;22788;51.434;6.786;2023-08-08T00:23:00;1.70;;;1.60;;
36855;SDS011;22788;51.434;6.786;2023-08-08T00:25:26;1.75;;;1.50;;
36855;SDS011;22788;51.434;6.786;2023-08-08T00:27:52;1.58;;;1.48;;
36855;SDS011;22788;51.434;6.786;2023-08-08T00:30:17;2.95;;;2.03;;
36855;SDS011;22788;51.434;6.786;2023-08-08T00:32:43;3.25;;;1.73;;
36855;SDS011;22788;51.434;6.786;2023-08-08T00:35:09;1.77;;;1.67;;
36855;SDS011;22788;51.434;6.786;2023-08-08T00:37:36;2.30;;;1.80;;
36855;SDS011;22788;51.434;6.786;2023-08-08T00:40:02;3.13;;;2.08;;
36855;SDS011;22788;51.434;6.786;2023-08-08T00:42:27;1.63;;;1.40;;
36855;SDS011;22788;51.434;6.786;2023-08-08T00:44:53;1.63;;;1.52;;
36855;SDS011;22788;51.434;6.786;2023-08-08T00:47:19;2.80;;;1.73;;
36855;SDS011;22788;51.434;6.786;2023-08-08T00:49:44;1.83;;;1.73;;
36855;SDS011;22788;51.434;6.786;2023-08-08T00:52:11;2.17;;;1.30;;
36855;SDS011;22788;51.434;6.786;2023-08-08T00:54:38;2.25;;;1.60;;
36855;SDS011;22788;51.434;6.786;2023-08-08T00:57:04;1.75;;;1.63;;
36855;SDS011;22788;51.434;6.786;2023-08-08T00:59:30;1.98;;;1.67;;
36855;SDS011;22788;51.434;6.786;2023-08-08T01:01:56;1.50;;;1.40;;
36855;SDS011;22788;51.434;6.786;2023-08-08T01:04:22;2.80;;;1.75;;
36855;SDS011;22788;51.434;6.786;2023-08-08T01:06:51;1.50;;;1.40;;
36855;SDS011;22788;51.434;6.786;2023-08-08T01:09:24;2.35;;;1.90;;
36855;SDS011;22788;51.434;6.786;2023-08-08T01:11:56;3.15;;;1.60;;
36855;SDS011;22788;51.434;6.786;2023-08-08T01:14:22;2.03;;;1.83;;
36855;SDS011;22788;51.434;6.786;2023-08-08T01:16:52;3.17;;;2.22;;
36855;SDS011;22788;51.434;6.786;2023-08-08T01:19:21;2.67;;;1.67;;
36855;SDS011;22788;51.434;6.786;2023-08-08T01:21:52;4.18;;;2.10;;
36855;SDS011;22788;51.434;6.786;2023-08-08T01:24:20;2.17;;;2.00;;
36855;SDS011;22788;51.434;6.786;2023-08-08T01:26:47;2.13;;;1.70;;
36855;SDS011;22788;51.434;6.786;2023-08-08T01:29:13;2.85;;;1.60;;
36855;SDS011;22788;51.434;6.786;2023-08-08T01:31:39;1.83;;;1.63;;
36855;SDS011;22788;51.434;6.786;2023-08-08T01:34:04;2.00;;;1.73;;
36855;SDS011;22788;51.434;6.786;2023-08-08T01:36:30;2.20;;;1.83;;
36855;SDS011;22788;51.434;6.786;2023-08-08T01:39:00;3.00;;;1.45;;
36855;SDS011;22788;51.434;6.786;2023-08-08T01:41:28;3.45;;;1.95;;
36855;SDS011;22788;51.434;6.786;2023-08-08T01:43:55;3.40;;;1.58;;
36855;SDS011;22788;51.434;6.786;2023-08-08T01:46:21;1.77;;;1.67;;
36855;SDS011;22788;51.434;6.786;2023-08-08T01:48:47;2.25;;;1.60;;
36855;SDS011;22788;51.434;6.786;2023-08-08T01:51:12;2.10;;;1.70;;
36855;SDS011;22788;51.434;6.786;2023-08-08T01:53:38;3.53;;;1.85;;
36855;SDS011;22788;51.434;6.786;2023-08-08T01:56:04;2.10;;;1.90;;
36855;SDS011;22788;51.434;6.786;2023-08-08T01:58:31;3.00;;;1.95;;
36855;SDS011;22788;51.434;6.786;2023-08-08T02:00:56;2.25;;;1.80;;
36855;SDS011;22788;51.434;6.786;2023-08-08T02:03:22;2.03;;;1.60;;
36855;SDS011;22788;51.434;6.786;2023-08-08T02:05:47;1.90;;;1.80;;
36855;SDS011;22788;51.434;6.786;2023-08-08T02:08:13;3.00;;;2.10;;
36855;SDS011;22788;51.434;6.786;2023-08-08T02:10:39;2.45;;;1.73;;
36855;SDS011;22788;51.434;6.786;2023-08-08T02:13:04;1.85;;;1.70;;
36855;SDS011;22788;51.434;6.786;2023-08-08T02:15:35;3.03;;;2.13;;
36855;SDS011;22788;51.434;6.786;2023-08-08T02:18:10;1.95;;;1.73;;
36855;SDS011;22788;51.434;6.786;2023-08-08T02:20:41;2.35;;;1.63;;
36855;SDS011;22788;51.434;6.786;2023-08-08T02:23:18;3.78;;;2.17;;
36855;SDS011;22788;51.434;6.786;2023-08-08T02:25:50;3.00;;;1.80;;
36855;SDS011;22788;51.434;6.786;2023-08-08T02:28:16;2.00;;;1.80;;
36855;SDS011;22788;51.434;6.786;2023-08-08T02:30:46;3.60;;;2.13;;
36855;SDS011;22788;51.434;6.786;2023-08-08T02:33:13;2.70;;;2.10;;
36855;SDS011;22788;51.434;6.786;2023-08-08T02:35:41;2.28;;;1.70;;
36855;SDS011;22788;51.434;6.786;2023-08-08T02:38:07;2.17;;;1.98;;
36855;SDS011;22788;51.434;6.786;2023-08-08T02:40:35;2.33;;;2.13;;
36855;SDS011;22788;51.434;6.786;2023-08-08T02:43:03;2.38;;;1.90;;
36855;SDS011;22788;51.434;6.786;2023-08-08T02:45:30;1.52;;;1.42;;
36855;SDS011;22788;51.434;6.786;2023-08-08T02:47:59;3.70;;;2.25;;
36855;SDS011;22788;51.434;6.786;2023-08-08T02:50:27;3.53;;;2.10;;
36855;SDS011;22788;51.434;6.786;2023-08-08T02:52:55;2.17;;;1.90;;
36855;SDS011;22788;51.434;6.786;2023-08-08T02:55:22;4.00;;;2.10;;
36855;SDS011;22788;51.434;6.786;2023-08-08T02:57:48;2.28;;;2.08;;
36855;SDS011;22788;51.434;6.786;2023-08-08T03:00:16;2.00;;;1.90;;
36855;SDS011;22788;51.434;6.786;2023-08-08T03:02:43;1.80;;;1.70;;
36855;SDS011;22788;51.434;6.786;2023-08-08T03:05:13;2.22;;;1.88;;
36855;SDS011;22788;51.434;6.786;2023-08-08T03:07:40;2.22;;;2.03;;
36855;SDS011;22788;51.434;6.786;2023-08-08T03:10:07;2.70;;;1.92;;
36855;SDS011;22788;51.434;6.786;2023-08-08T03:12:35;2.78;;;2.10;;
36855;SDS011;22788;51.434;6.786;2023-08-08T03:15:02;3.13;;;1.88;;
36855;SDS011;22788;51.434;6.786;2023-08-08T03:17:29;2.20;;;2.00;;
36855;SDS011;22788;51.434;6.786;2023-08-08T03:19:56;2.25;;;2.03;;
36855;SDS011;22788;51.434;6.786;2023-08-08T03:22:25;2.90;;;2.08;;
36855;SDS011;22788;51.434;6.786;2023-08-08T03:24:52;2.58;;;1.88;;
36855;SDS011;22788;51.434;6.786;2023-08-08T03:27:18;2.67;;;1.92;;
36855;SDS011;22788;51.434;6.786;2023-08-08T03:29:43;2.75;;;2.00;;
36855;SDS011;22788;51.434;6.786;2023-08-08T03:32:09;3.25;;;2.00;;
36855;SDS011;22788;51.434;6.786;2023-08-08T03:34:34;3.38;;;2.10;;
36855;SDS011;22788;51.434;6.786;2023-08-08T03:37:00;3.10;;;1.80;;
36855;SDS011;22788;51.434;6.786;2023-08-08T03:39:27;3.35;;;2.10;;
36855;SDS011;22788;51.434;6.786;2023-08-08T03:41:53;3.28;;;2.08;;
36855;SDS011;22788;51.434;6.786;2023-08-08T03:44:18;3.38;;;1.85;;
36855;SDS011;22788;51.434;6.786;2023-08-08T03:46:44;2.13;;;1.90;;
36855;SDS011;22788;51.434;6.786;2023-08-08T03:49:09;2.60;;;2.20;;
36855;SDS011;22788;51.434;6.786;2023-08-08T03:51:35;4.30;;;2.40;;
36855;SDS011;22788;51.434;6.786;2023-08-08T03:54:00;3.53;;;2.08;;
36855;SDS011;22788;51.434;6.786;2023-08-08T03:56:27;4.65;;;2.63;;
36855;SDS011;22788;51.434;6.786;2023-08-08T03:58:53;3.38;;;2.10;;
36855;SDS011;22788;51.434;6.786;2023-08-08T04:01:19;4.50;;;2.53;;
36855;SDS011;22788;51.434;6.786;2023-08-08T04:03:44;2.20;;;2.00;;
36855;SDS011;22788;51.434;6.786;2023-08-08T04:06:10;3.83;;;2.35;;
36855;SDS011;22788;51.434;6.786;2023-08-08T04:08:35;2.58;;;2.17;;
36855;SDS011;22788;51.434;6.786;2023-08-08T04:11:01;1.98;;;1.83;;
36855;SDS011;22788;51.434;6.786;2023-08-08T04:13:28;3.63;;;2.10;;
36855;SDS011;22788;51.434;6.786;2023-08-08T04:15:54;3.63;;;2.85;;
36855;SDS011;22788;51.434;6.786;2023-08-08T04:18:19;4.82;;;2.50;;
36855;SDS011;22788;51.434;6.786;2023-08-08T04:20:45;6.05;;;2.15;;
36855;SDS011;22788;51.434;6.786;2023-08-08T04:23:11;5.25;;;2.97;;
36855;SDS011;22788;51.434;6.786;2023-08-08T04:25:36;5.32;;;2.70;;
36855;SDS011;22788;51.434;6.786;2023-08-08T04:28:02;3.17;;;2.60;;
36855;SDS011;22788;51.434;6.786;2023-08-08T04:30:29;4.18;;;2.25;;
36855;SDS011;22788;51.434;6.786;2023-08-08T04:32:55;4.78;;;3.03;;
36855;SDS011;22788;51.434;6.786;2023-08-08T04:35:21;3.45;;;2.42;;
36855;SDS011;22788;51.434;6.786;2023-08-08T04:37:46;4.78;;;2.60;;
36855;SDS011;22788;51.434;6.786;2023-08-08T04:40:12;5.53;;;2.42;;
36855;SDS011;22788;51.434;6.786;2023-08-08T04:42:37;4.03;;;2.55;;
36855;SDS011;22788;51.434;6.786;2023-08-08T04:45:04;4.03;;;2.60;;
36855;SDS011;22788;51.434;6.786;2023-08-08T04:47:31;6.43;;;2.88;;
36855;SDS011;22788;51.434;6.786;2023-08-08T04:49:57;5.22;;;2.80;;
36855;SDS011;22788;51.434;6.786;2023-08-08T04:52:22;3.90;;;2.40;;
36855;SDS011;22788;51.434;6.786;2023-08-08T04:54:48;3.15;;;2.35;;
36855;SDS011;22788;51.434;6.786;2023-08-08T04:57:14;5.50;;;2.72;;
36855;SDS011;22788;51.434;6.786;2023-08-08T04:59:39;4.50;;;2.70;;
36855;SDS011;22788;51.434;6.786;2023-08-08T05:02:05;3.00;;;2.25;;
36855;SDS011;22788;51.434;6.786;2023-08-08T05:04:32;6.80;;;3.10;;
36855;SDS011;22788;51.434;6.786;2023-08-08T05:06:58;3.92;;;2.92;;
36855;SDS011;22788;51.434;6.786;2023-08-08T05:09:23;4.53;;;2.65;;
36855;SDS011;22788;51.434;6.786;2023-08-08T05:11:49;3.78;;;2.30;;
36855;SDS011;22788;51.434;6.786;2023-08-08T05:14:14;5.20;;;2.75;;
36855;SDS011;22788;51.434;6.786;2023-08-08T05:16:40;7.30;;;3.70;;
36855;SDS011;22788;51.434;6.786;2023-08-08T05:19:05;5.10;;;3.08;;
36855;SDS011;22788;51.434;6.786;2023-08-08T05:21:33;5.00;;;3.25;;
36855;SDS011;22788;51.434;6.786;2023-08-08T05:23:59;3.03;;;2.65;;
36855;SDS011;22788;51.434;6.786;2023-08-08T05:26:25;3.50;;;3.17;;
36855;SDS011;22788;51.434;6.786;2023-08-08T05:28:51;6.03;;;3.63;;
36855;SDS011;22788;51.434;6.786;2023-08-08T05:31:16;7.78;;;3.97;;
36855;SDS011;22788;51.434;6.786;2023-08-08T05:33:42;4.28;;;3.10;;
36855;SDS011;22788;51.434;6.786;2023-08-08T05:36:08;5.60;;;3.30;;
36855;SDS011;22788;51.434;6.786;2023-08-08T05:38:35;4.53;;;3.20;;
36855;SDS011;22788;51.434;6.786;2023-08-08T05:41:01;4.90;;;2.55;;
36855;SDS011;22788;51.434;6.786;2023-08-08T05:43:27;7.15;;;3.83;;
36855;SDS011;22788;51.434;6.786;2023-08-08T05:45:53;4.18;;;3.33;;
36855;SDS011;22788;51.434;6.786;2023-08-08T05:48:18;4.10;;;3.47;;
36855;SDS011;22788;51.434;6.786;2023-08-08T05:50:44;4.95;;;2.75;;
36855;SDS011;22788;51.434;6.786;2023-08-08T05:53:09;6.80;;;3.75;;
36855;SDS011;22788;51.434;6.786;2023-08-08T05:55:36;4.80;;;3.17;;
36855;SDS011;22788;51.434;6.786;2023-08-08T05:58:02;5.20;;;3.08;;
36855;SDS011;22788;51.434;6.786;2023-08-08T06:00:28;10.60;;;4.75;;
36855;SDS011;22788;51.434;6.786;2023-08-08T06:02:53;5.35;;;3.38;;
36855;SDS011;22788;51.434;6.786;2023-08-08T06:05:19;4.75;;;3.53;;
36855;SDS011;22788;51.434;6.786;2023-08-08T06:07:47;7.43;;;4.18;;
36855;SDS011;22788;51.434;6.786;2023-08-08T06:10:12;6.50;;;3.53;;
36855;SDS011;22788;51.434;6.786;2023-08-08T06:12:39;9.70;;;5.05;;
36855;SDS011;22788;51.434;6.786;2023-08-08T06:15:05;10.35;;;4.97;;
36855;SDS011;22788;51.434;6.786;2023-08-08T06:17:32;5.22;;;4.47;;
36855;SDS011;22788;51.434;6.786;2023-08-08T06:19:58;4.05;;;3.42;;
36855;SDS011;22788;51.434;6.786;2023-08-08T06:22:23;5.22;;;3.80;;
36855;SDS011;22788;51.434;6.786;2023-08-08T06:24:49;9.60;;;5.18;;
36855;SDS011;22788;51.434;6.786;2023-08-08T06:27:15;6.82;;;3.42;;
36855;SDS011;22788;51.434;6.786;2023-08-08T06:29:42;10.15;;;5.40;;
36855;SDS011;22788;51.434;6.786;2023-08-08T06:32:07;5.18;;;3.45;;
36855;SDS011;22788;51.434;6.786;2023-08-08T06:34:33;7.82;;;4.32;;
36855;SDS011;22788;51.434;6.786;2023-08-08T06:36:59;4.97;;;3.80;;
36855;SDS011;22788;51.434;6.786;2023-08-08T06:39:24;6.75;;;5.40;;
36855;SDS011;22788;51.434;6.786;2023-08-08T06:41:50;11.18;;;4.15;;
36855;SDS011;22788;51.434;6.786;2023-08-08T06:44:16;6.57;;;3.80;;
36855;SDS011;22788;51.434;6.786;2023-08-08T06:46:43;7.60;;;4.32;;
36855;SDS011;22788;51.434;6.786;2023-08-08T06:49:08;6.78;;;4.75;;
36855;SDS011;22788;51.434;6.786;2023-08-08T06:51:34;7.47;;;4.28;;
36855;SDS011;22788;51.434;6.786;2023-08-08T06:53:59;10.25;;;6.60;;
36855;SDS011;22788;51.434;6.786;2023-08-08T06:56:25;6.85;;;4.38;;
36855;SDS011;22788;51.434;6.786;2023-08-08T06:58:51;8.55;;;4.93;;
36855;SDS011;22788;51.434;6.786;2023-08-08T07:01:16;6.72;;;4.20;;
36855;SDS011;22788;51.434;6.786;2023-08-08T07:03:43;6.32;;;4.40;;
36855;SDS011;22788;51.434;6.786;2023-08-08T07:06:09;10.00;;;5.57;;
36855;SDS011;22788;51.434;6.786;2023-08-08T07:08:35;8.57;;;5.53;;
36855;SDS011;22788;51.434;6.786;2023-08-08T07:11:00;10.05;;;4.88;;
36855;SDS011;22788;51.434;6.786;2023-08-08T07:13:26;6.18;;;4.45;;
36855;SDS011;22788;51.434;6.786;2023-08-08T07:15:52;5.82;;;3.97;;
36855;SDS011;22788;51.434;6.786;2023-08-08T07:18:17;8.63;;;5.38;;
36855;SDS011;22788;51.434;6.786;2023-08-08T07:20:44;6.50;;;3.67;;
36855;SDS011;22788;51.434;6.786;2023-08-08T07:23:10;9.45;;;5.80;;
36855;SDS011;22788;51.434;6.786;2023-08-08T07:25:35;7.78;;;5.10;;
36855;SDS011;22788;51.434;6.786;2023-08-08T07:28:01;7.70;;;4.82;;
36855;SDS011;22788;51.434;6.786;2023-08-08T07:33:30;8.15;;;4.40;;
36855;SDS011;22788;51.434;6.786;2023-08-08T07:35:57;8.27;;;5.10;;
36855;SDS011;22788;51.434;6.786;2023-08-08T07:38:22;8.15;;;4.32;;
36855;SDS011;22788;51.434;6.786;2023-08-08T07:40:48;6.55;;;4.75;;
36855;SDS011;22788;51.434;6.786;2023-08-08T07:43:14;8.05;;;4.97;;
36855;SDS011;22788;51.434;6.786;2023-08-08T07:45:39;5.57;;;4.65;;
36855;SDS011;22788;51.434;6.786;2023-08-08T07:48:05;8.00;;;4.80;;
36855;SDS011;22788;51.434;6.786;2023-08-08T07:50:31;7.40;;;4.50;;
36855;SDS011;22788;51.434;6.786;2023-08-08T07:52:58;10.60;;;4.30;;
36855;SDS011;22788;51.434;6.786;2023-08-08T07:55:24;4.43;;;3.83;;
36855;SDS011;22788;51.434;6.786;2023-08-08T07:57:49;6.95;;;3.95;;
36855;SDS011;22788;51.434;6.786;2023-08-08T08:00:15;6.90;;;3.60;;
36855;SDS011;22788;51.434;6.786;2023-08-08T08:02:42;5.28;;;3.95;;
36855;SDS011;22788;51.434;6.786;2023-08-08T08:05:08;5.30;;;3.30;;
36855;SDS011;22788;51.434;6.786;2023-08-08T08:07:34;7.93;;;4.30;;
36855;SDS011;22788;51.434;6.786;2023-08-08T08:10:02;7.75;;;3.75;;
36855;SDS011;22788;51.434;6.786;2023-08-08T08:12:29;6.65;;;4.10;;
36855;SDS011;22788;51.434;6.786;2023-08-08T08:14:55;6.68;;;3.72;;
36855;SDS011;22788;51.434;6.786;2023-08-08T08:17:21;6.68;;;3.95;;
36855;SDS011;22788;51.434;6.786;2023-08-08T08:19:47;4.28;;;3.45;;
36855;SDS011;22788;51.434;6.786;2023-08-08T08:22:12;5.05;;;3.30;;
36855;SDS011;22788;51.434;6.786;2023-08-08T08:24:38;5.20;;;3.78;;
36855;SDS011;22788;51.434;6.786;2023-08-08T08:27:05;9.32;;;3.72;;
36855;SDS011;22788;51.434;6.786;2023-08-08T08:29:31;9.70;;;4.13;;
36855;SDS011;22788;51.434;6.786;2023-08-08T08:31:57;5.20;;;3.42;;
36855;SDS011;22788;51.434;6.786;2023-08-08T08:34:22;4.95;;;3.47;;
36855;SDS011;22788;51.434;6.786;2023-08-08T08:36:48;4.88;;;3.65;;
36855;SDS011;22788;51.434;6.786;2023-08-08T08:39:14;7.28;;;3.40;;
36855;SDS011;22788;51.434;6.786;2023-08-08T08:41:39;6.75;;;3.50;;
36855;SDS011;22788;51.434;6.786;2023-08-08T08:44:06;4.15;;;3.50;;
36855;SDS011;22788;51.434;6.786;2023-08-08T08:46:33;4.50;;;3.50;;
36855;SDS011;22788;51.434;6.786;2023-08-08T08:49:01;7.30;;;3.47;;
36855;SDS011;22788;51.434;6.786;2023-08-08T08:51:30;7.35;;;3.80;;
36855;SDS011;22788;51.434;6.786;2023-08-08T08:53:56;5.55;;;3.20;;
36855;SDS011;22788;51.434;6.786;2023-08-08T08:56:23;6.60;;;3.33;;
36855;SDS011;22788;51.434;6.786;2023-08-08T08:58:48;5.30;;;3.15;;
36855;SDS011;22788;51.434;6.786;2023-08-08T09:01:15;5.45;;;3.17;;
36855;SDS011;22788;51.434;6.786;2023-08-08T09:03:42;8.23;;;3.75;;
36855;SDS011;22788;51.434;6.786;2023-08-08T09:06:09;5.28;;;3.13;;
36855;SDS011;22788;51.434;6.786;2023-08-08T09:08:36;10.05;;;3.58;;
36855;SDS011;22788;51.434;6.786;2023-08-08T09:11:01;4.25;;;3.08;;
36855;SDS011;22788;51.434;6.786;2023-08-08T09:13:32;6.45;;;3.58;;
36855;SDS011;22788;51.434;6.786;2023-08-08T09:16:01;5.60;;;2.97;;
36855;SDS011;22788;51.434;6.786;2023-08-08T09:18:28;3.78;;;2.85;;
36855;SDS011;22788;51.434;6.786;2023-08-08T09:20:53;7.28;;;2.95;;
36855;SDS011;22788;51.434;6.786;2023-08-08T09:23:19;5.10;;;3.15;;
36855;SDS011;22788;51.434;6.786;2023-08-08T09:25:45;10.90;;;2.85;;
36855;SDS011;22788;51.434;6.786;2023-08-08T09:28:11;6.65;;;2.95;;
36855;SDS011;22788;51.434;6.786;2023-08-08T09:30:37;3.40;;;2.85;;
36855;SDS011;22788;51.434;6.786;2023-08-08T09:33:02;5.03;;;3.17;;
36855;SDS011;22788;51.434;6.786;2023-08-08T09:35:31;4.25;;;3.15;;
36855;SDS011;22788;51.434;6.786;2023-08-08T09:37:56;5.45;;;3.15;;
36855;SDS011;22788;51.434;6.786;2023-08-08T09:40:22;5.00;;;3.00;;
36855;SDS011;22788;51.434;6.786;2023-08-08T09:42:50;6.82;;;3.35;;
36855;SDS011;22788;51.434;6.786;2023-08-08T09:45:16;6.68;;;3.08;;
36855;SDS011;22788;51.434;6.786;2023-08-08T09:47:42;7.80;;;3.25;;
36855;SDS011;22788;51.434;6.786;2023-08-08T09:50:08;6.97;;;3.38;;
36855;SDS011;22788;51.434;6.786;2023-08-08T09:52:35;8.18;;;3.35;;
36855;SDS011;22788;51.434;6.786;2023-08-08T09:55:01;6.97;;;3.25;;
36855;SDS011;22788;51.434;6.786;2023-08-08T09:57:28;5.38;;;3.13;;
36855;SDS011;22788;51.434;6.786;2023-08-08T09:59:54;5.13;;;2.90;;
36855;SDS011;22788;51.434;6.786;2023-08-08T10:02:20;4.57;;;2.75;;
36855;SDS011;22788;51.434;6.786;2023-08-08T10:04:46;7.43;;;3.20;;
36855;SDS011;22788;51.434;6.786;2023-08-08T10:07:12;7.68;;;2.60;;
36855;SDS011;22788;51.434;6.786;2023-08-08T10:09:39;6.57;;;3.17;;
36855;SDS011;22788;51.434;6.786;2023-08-08T10:12:06;4.20;;;3.00;;
36855;SDS011;22788;51.434;6.786;2023-08-08T10:14:32;3.63;;;3.05;;
36855;SDS011;22788;51.434;6.786;2023-08-08T10:17:01;4.68;;;3.10;;
36855;SDS011;22788;51.434;6.786;2023-08-08T10:19:27;7.65;;;3.20;;
36855;SDS011;22788;51.434;6.786;2023-08-08T10:21:57;11.60;;;3.10;;
36855;SDS011;22788;51.434;6.786;2023-08-08T10:24:24;6.10;;;3.00;;
36855;SDS011;22788;51.434;6.786;2023-08-08T10:26:54;6.95;;;3.03;;
36855;SDS011;22788;51.434;6.786;2023-08-08T10:29:23;5.93;;;2.80;;
36855;SDS011;22788;51.434;6.786;2023-08-08T10:31:53;4.07;;;2.22;;
36855;SDS011;22788;51.434;6.786;2023-08-08T10:34:26;4.43;;;2.83;;
36855;SDS011;22788;51.434;6.786;2023-08-08T10:36:52;3.80;;;2.33;;
36855;SDS011;22788;51.434;6.786;2023-08-08T10:39:18;5.85;;;2.67;;
36855;SDS011;22788;51.434;6.786;2023-08-08T10:41:45;7.43;;;2.85;;
36855;SDS011;22788;51.434;6.786;2023-08-08T10:44:13;8.50;;;3.08;;
36855;SDS011;22788;51.434;6.786;2023-08-08T10:46:45;6.30;;;2.50;;
36855;SDS011;22788;51.434;6.786;2023-08-08T10:49:11;5.75;;;3.15;;
36855;SDS011;22788;51.434;6.786;2023-08-08T10:51:38;8.70;;;2.83;;
36855;SDS011;22788;51.434;6.786;2023-08-08T10:54:05;6.05;;;2.78;;
36855;SDS011;22788;51.434;6.786;2023-08-08T10:56:34;4.57;;;2.78;;
36855;SDS011;22788;51.434;6.786;2023-08-08T10:59:11;4.57;;;3.17;;
36855;SDS011;22788;51.434;6.786;2023-08-08T11:01:40;4.55;;;2.88;;
36855;SDS011;22788;51.434;6.786;2023-08-08T11:04:07;7.38;;;2.88;;
36855;SDS011;22788;51.434;6.786;2023-08-08T11:06:33;3.85;;;2.65;;
36855;SDS011;22788;51.434;6.786;2023-08-08T11:08:59;3.58;;;2.60;;
36855;SDS011;22788;51.434;6.786;2023-08-08T11:11:26;6.88;;;3.00;;
36855;SDS011;22788;51.434;6.786;2023-08-08T11:13:51;5.63;;;2.40;;
36855;SDS011;22788;51.434;6.786;2023-08-08T11:16:18;5.50;;;2.50;;
36855;SDS011;22788;51.434;6.786;2023-08-08T11:18:44;3.92;;;2.47;;
36855;SDS011;22788;51.434;6.786;2023-08-08T11:21:10;6.65;;;2.50;;
36855;SDS011;22788;51.434;6.786;2023-08-08T11:23:36;5.10;;;2.63;;
36855;SDS011;22788;51.434;6.786;2023-08-08T11:26:02;6.20;;;2.60;;
36855;SDS011;22788;51.434;6.786;2023-08-08T11:28:27;3.65;;;2.63;;
36855;SDS011;22788;51.434;6.786;2023-08-08T11:30:53;5.60;;;2.78;;
36855;SDS011;22788;51.434;6.786;2023-08-08T11:33:20;6.72;;;2.53;;
36855;SDS011;22788;51.434;6.786;2023-08-08T11:35:46;3.30;;;2.42;;
36855;SDS011;22788;51.434;6.786;2023-08-08T11:38:11;4.25;;;2.70;;
36855;SDS011;22788;51.434;6.786;2023-08-08T11:40:38;4.50;;;2.40;;
36855;SDS011;22788;51.434;6.786;2023-08-08T11:43:04;5.78;;;2.45;;
36855;SDS011;22788;51.434;6.786;2023-08-08T11:45:31;6.60;;;3.13;;
36855;SDS011;22788;51.434;6.786;2023-08-08T11:47:56;5.88;;;3.17;;
36855;SDS011;22788;51.434;6.786;2023-08-08T11:50:24;7.07;;;2.63;;
36855;SDS011;22788;51.434;6.786;2023-08-08T11:52:51;5.25;;;2.83;;
36855;SDS011;22788;51.434;6.786;2023-08-08T11:55:17;4.75;;;2.83;;
36855;SDS011;22788;51.434;6.786;2023-08-08T11:57:43;4.72;;;2.55;;
36855;SDS011;22788;51.434;6.786;2023-08-08T12:00:10;8.77;;;3.13;;
36855;SDS011;22788;51.434;6.786;2023-08-08T12:02:36;6.32;;;2.70;;
36855;SDS011;22788;51.434;6.786;2023-08-08T12:05:05;5.40;;;2.83;;
36855;SDS011;22788;51.434;6.786;2023-08-08T12:07:33;4.97;;;2.50;;
36855;SDS011;22788;51.434;6.786;2023-08-08T12:09:59;4.63;;;3.55;;
36855;SDS011;22788;51.434;6.786;2023-08-08T12:12:25;4.70;;;2.83;;
36855;SDS011;22788;51.434;6.786;2023-08-08T12:14:51;3.00;;;2.15;;
36855;SDS011;22788;51.434;6.786;2023-08-08T12:17:18;4.68;;;2.75;;
36855;SDS011;22788;51.434;6.786;2023-08-08T12:19:46;6.07;;;2.67;;
36855;SDS011;22788;51.434;6.786;2023-08-08T12:22:11;5.63;;;2.88;;
36855;SDS011;22788;51.434;6.786;2023-08-08T12:24:38;3.90;;;2.67;;
36855;SDS011;22788;51.434;6.786;2023-08-08T12:27:04;4.05;;;2.30;;
36855;SDS011;22788;51.434;6.786;2023-08-08T12:29:30;3.90;;;2.30;;
36855;SDS011;22788;51.434;6.786;2023-08-08T12:31:55;5.10;;;2.40;;
36855;SDS011;22788;51.434;6.786;2023-08-08T12:34:21;13.02;;;2.75;;
36855;SDS011;22788;51.434;6.786;2023-08-08T12:36:47;4.75;;;2.35;;
36855;SDS011;22788;51.434;6.786;2023-08-08T12:39:12;4.57;;;2.58;;
36855;SDS011;22788;51.434;6.786;2023-08-08T12:41:39;5.55;;;2.70;;
36855;SDS011;22788;51.434;6.786;2023-08-08T12:44:05;3.05;;;2.40;;
36855;SDS011;22788;51.434;6.786;2023-08-08T12:46:31;4.85;;;2.25;;
36855;SDS011;22788;51.434;6.786;2023-08-08T12:48:56;6.50;;;2.40;;
36855;SDS011;22788;51.434;6.786;2023-08-08T12:51:22;4.07;;;2.40;;
36855;SDS011;22788;51.434;6.786;2023-08-08T12:53:48;4.25;;;2.55;;
36855;SDS011;22788;51.434;6.786;2023-08-08T12:56:14;6.10;;;2.67;;
36855;SDS011;22788;51.434;6.786;2023-08-08T12:58:41;3.35;;;2.20;;
36855;SDS011;22788;51.434;6.786;2023-08-08T13:01:07;6.93;;;2.70;;
36855;SDS011;22788;51.434;6.786;2023-08-08T13:03:33;3.00;;;2.47;;
36855;SDS011;22788;51.434;6.786;2023-08-08T13:05:58;3.17;;;2.22;;
36855;SDS011;22788;51.434;6.786;2023-08-08T13:08:24;4.05;;;2.08;;
36855;SDS011;22788;51.434;6.786;2023-08-08T13:10:50;6.03;;;2.13;;
36855;SDS011;22788;51.434;6.786;2023-08-08T13:13:16;2.60;;;2.20;;
36855;SDS011;22788;51.434;6.786;2023-08-08T13:15:43;5.70;;;2.50;;
36855;SDS011;22788;51.434;6.786;2023-08-08T13:18:09;8.80;;;2.70;;
36855;SDS011;22788;51.434;6.786;2023-08-08T13:20:34;3.83;;;2.25;;
36855;SDS011;22788;51.434;6.786;2023-08-08T13:23:00;4.55;;;3.60;;
36855;SDS011;22788;51.434;6.786;2023-08-08T13:25:25;4.50;;;2.75;;
36855;SDS011;22788;51.434;6.786;2023-08-08T13:27:51;4.65;;;2.15;;
36855;SDS011;22788;51.434;6.786;2023-08-08T13:30:17;3.75;;;2.30;;
36855;SDS011;22788;51.434;6.786;2023-08-08T13:32:44;3.90;;;2.17;;
36855;SDS011;22788;51.434;6.786;2023-08-08T13:35:09;4.38;;;2.35;;
36855;SDS011;22788;51.434;6.786;2023-08-08T13:37:35;3.70;;;1.90;;
36855;SDS011;22788;51.434;6.786;2023-08-08T13:40:01;6.45;;;2.38;;
36855;SDS011;22788;51.434;6.786;2023-08-08T13:42:26;3.80;;;1.95;;
36855;SDS011;22788;51.434;6.786;2023-08-08T13:44:52;4.93;;;2.45;;
36855;SDS011;22788;51.434;6.786;2023-08-08T13:47:17;3.42;;;2.35;;
36855;SDS011;22788;51.434;6.786;2023-08-08T13:49:44;5.07;;;2.40;;
36855;SDS011;22788;51.434;6.786;2023-08-08T13:52:10;3.90;;;2.28;;
36855;SDS011;22788;51.434;6.786;2023-08-08T13:54:35;2.90;;;1.92;;
36855;SDS011;22788;51.434;6.786;2023-08-08T13:57:01;4.30;;;2.13;;
36855;SDS011;22788;51.434;6.786;2023-08-08T13:59:27;3.67;;;1.85;;
36855;SDS011;22788;51.434;6.786;2023-08-08T14:01:52;5.25;;;1.90;;
36855;SDS011;22788;51.434;6.786;2023-08-08T14:04:18;5.68;;;2.10;;
36855;SDS011;22788;51.434;6.786;2023-08-08T14:06:45;2.33;;;1.88;;
36855;SDS011;22788;51.434;6.786;2023-08-08T14:09:11;3.97;;;1.90;;
36855;SDS011;22788;51.434;6.786;2023-08-08T14:11:36;6.03;;;2.17;;
36855;SDS011;22788;51.434;6.786;2023-08-08T14:14:02;3.10;;;2.00;;
36855;SDS011;22788;51.434;6.786;2023-08-08T14:16:28;3.92;;;2.20;;
36855;SDS011;22788;51.434;6.786;2023-08-08T14:18:53;3.03;;;2.10;;
36855;SDS011;22788;51.434;6.786;2023-08-08T14:21:19;5.25;;;2.40;;
36855;SDS011;22788;51.434;6.786;2023-08-08T14:23:46;2.90;;;2.28;;
36855;SDS011;22788;51.434;6.786;2023-08-08T14:26:12;2.92;;;1.88;;
36855;SDS011;22788;51.434;6.786;2023-08-08T14:28:37;4.07;;;2.53;;
36855;SDS011;22788;51.434;6.786;2023-08-08T14:31:03;4.53;;;1.95;;
36855;SDS011;22788;51.434;6.786;2023-08-08T14:33:29;4.60;;;1.85;;
36855;SDS011;22788;51.434;6.786;2023-08-08T14:35:54;4.88;;;2.20;;
36855;SDS011;22788;51.434;6.786;2023-08-08T14:38:23;2.33;;;1.75;;
36855;SDS011;22788;51.434;6.786;2023-08-08T14:40:51;5.10;;;1.88;;
36855;SDS011;22788;51.434;6.786;2023-08-08T14:43:16;5.50;;;1.92;;
36855;SDS011;22788;51.434;6.786;2023-08-08T14:45:42;2.45;;;1.60;;